sensor_id;sensor_type;location;lat;lon;timestamp;temperature;humidity
439;DHT22;206;48.782;9.252;2022-11-15T00:01:35;10.50;70.00
439;DHT22;206;48.782;9.252;2022-11-15T00:04:04;10.50;69.00
439;DHT22;206;48.782;9.252;2022-11-15T00:06:30;10.40;68.50
439;DHT22;206;48.782;9.252;2022-11-15T00:08:58;10.30;69.30
439;DHT22;206;48.782;9.252;2022-11-15T00:11:24;10.20;69.60
439;DHT22;206;48.782;9.252;2022-11-15T00:13:50;10.20;70.70
439;DHT22;206;48.782;9.252;2022-11-15T00:16:16;10.10;71.20
439;DHT22;206;48.782;9.252;2022-11-15T00:18:41;10.10;72.20
439;DHT22;206;48.782;9.252;2022-11-15T00:21:10;10.10;72.10
439;DHT22;206;48.782;9.252;2022-11-15T00:23:36;10.20;71.30
439;DHT22;206;48.782;9.252;2022-11-15T00:26:02;10.20;70.80
439;DHT22;206;48.782;9.252;2022-11-15T00:28:28;10.20;70.50
439;DHT22;206;48.782;9.252;2022-11-15T00:31:02;10.30;71.20
439;DHT22;206;48.782;9.252;2022-11-15T00:33:28;10.30;70.80
439;DHT22;206;48.782;9.252;2022-11-15T00:35:59;10.20;71.00
439;DHT22;206;48.782;9.252;2022-11-15T00:38:25;10.30;71.40
439;DHT22;206;48.782;9.252;2022-11-15T00:40:51;10.30;71.40
439;DHT22;206;48.782;9.252;2022-11-15T00:43:16;10.30;71.20
439;DHT22;206;48.782;9.252;2022-11-15T00:45:42;10.40;71.00
439;DHT22;206;48.782;9.252;2022-11-15T00:48:09;10.40;70.50
439;DHT22;206;48.782;9.252;2022-11-15T00:50:34;10.40;70.00
439;DHT22;206;48.782;9.252;2022-11-15T00:53:00;10.30;69.70
439;DHT22;206;48.782;9.252;2022-11-15T00:55:25;10.30;70.00
439;DHT22;206;48.782;9.252;2022-11-15T00:57:51;10.30;70.20
439;DHT22;206;48.782;9.252;2022-11-15T01:00:17;10.30;70.00
439;DHT22;206;48.782;9.252;2022-11-15T01:02:42;10.20;70.40
439;DHT22;206;48.782;9.252;2022-11-15T01:05:08;10.10;71.20
439;DHT22;206;48.782;9.252;2022-11-15T01:07:34;10.10;71.90
439;DHT22;206;48.782;9.252;2022-11-15T01:09:59;10.10;72.60
439;DHT22;206;48.782;9.252;2022-11-15T01:12:25;10.00;72.70
439;DHT22;206;48.782;9.252;2022-11-15T01:14:50;9.90;73.70
439;DHT22;206;48.782;9.252;2022-11-15T01:17:16;9.90;73.70
439;DHT22;206;48.782;9.252;2022-11-15T01:19:42;9.90;73.70
439;DHT22;206;48.782;9.252;2022-11-15T01:22:07;9.80;74.50
439;DHT22;206;48.782;9.252;2022-11-15T01:24:33;9.80;74.20
439;DHT22;206;48.782;9.252;2022-11-15T01:26:58;9.80;74.70
439;DHT22;206;48.782;9.252;2022-11-15T01:29:24;9.80;75.20
439;DHT22;206;48.782;9.252;2022-11-15T01:31:49;9.80;75.30
439;DHT22;206;48.782;9.252;2022-11-15T01:34:15;9.80;74.70
439;DHT22;206;48.782;9.252;2022-11-15T01:36:41;9.70;74.60
439;DHT22;206;48.782;9.252;2022-11-15T01:39:07;9.70;74.20
439;DHT22;206;48.782;9.252;2022-11-15T01:41:33;9.60;74.70
439;DHT22;206;48.782;9.252;2022-11-15T01:47:04;9.50;75.00
439;DHT22;206;48.782;9.252;2022-11-15T01:49:33;9.50;75.80
439;DHT22;206;48.782;9.252;2022-11-15T01:52:02;9.50;76.00
439;DHT22;206;48.782;9.252;2022-11-15T01:54:29;9.40;75.90
439;DHT22;206;48.782;9.252;2022-11-15T01:57:02;9.40;76.10
439;DHT22;206;48.782;9.252;2022-11-15T01:59:28;9.30;76.60
439;DHT22;206;48.782;9.252;2022-11-15T02:01:54;9.20;77.20
439;DHT22;206;48.782;9.252;2022-11-15T02:04:26;9.20;77.90
439;DHT22;206;48.782;9.252;2022-11-15T02:06:53;9.20;77.90
439;DHT22;206;48.782;9.252;2022-11-15T02:09:19;9.20;77.90
439;DHT22;206;48.782;9.252;2022-11-15T02:11:45;9.10;78.00
439;DHT22;206;48.782;9.252;2022-11-15T02:14:13;9.10;78.80
439;DHT22;206;48.782;9.252;2022-11-15T02:30:45;9.30;78.00
439;DHT22;206;48.782;9.252;2022-11-15T02:33:39;9.30;78.20
439;DHT22;206;48.782;9.252;2022-11-15T02:36:14;9.30;78.00
439;DHT22;206;48.782;9.252;2022-11-15T02:38:59;9.40;78.10
439;DHT22;206;48.782;9.252;2022-11-15T02:44:30;9.40;77.30
439;DHT22;206;48.782;9.252;2022-11-15T02:47:01;9.40;77.00
439;DHT22;206;48.782;9.252;2022-11-15T02:49:52;9.40;76.70
439;DHT22;206;48.782;9.252;2022-11-15T02:52:24;9.40;75.50
439;DHT22;206;48.782;9.252;2022-11-15T02:54:59;9.30;76.30
439;DHT22;206;48.782;9.252;2022-11-15T02:57:51;9.20;77.00
439;DHT22;206;48.782;9.252;2022-11-15T03:00:19;9.20;77.20
439;DHT22;206;48.782;9.252;2022-11-15T03:02:58;9.00;77.80
439;DHT22;206;48.782;9.252;2022-11-15T03:05:51;9.00;79.00
439;DHT22;206;48.782;9.252;2022-11-15T03:08:31;9.00;79.40
439;DHT22;206;48.782;9.252;2022-11-15T03:11:11;9.00;79.70
439;DHT22;206;48.782;9.252;2022-11-15T03:13:48;9.00;79.80
439;DHT22;206;48.782;9.252;2022-11-15T03:16:38;9.00;78.80
439;DHT22;206;48.782;9.252;2022-11-15T03:21:32;9.00;78.20
439;DHT22;206;48.782;9.252;2022-11-15T03:24:01;8.90;78.70
439;DHT22;206;48.782;9.252;2022-11-15T03:26:29;8.90;79.30
439;DHT22;206;48.782;9.252;2022-11-15T03:28:58;8.80;79.40
439;DHT22;206;48.782;9.252;2022-11-15T03:31:29;8.80;80.10
439;DHT22;206;48.782;9.252;2022-11-15T03:34:23;8.70;80.40
439;DHT22;206;48.782;9.252;2022-11-15T03:36:51;8.70;80.90
439;DHT22;206;48.782;9.252;2022-11-15T03:39:17;8.70;81.50
439;DHT22;206;48.782;9.252;2022-11-15T03:44:47;8.70;82.00
439;DHT22;206;48.782;9.252;2022-11-15T03:47:38;8.70;81.40
439;DHT22;206;48.782;9.252;2022-11-15T03:50:12;8.50;82.00
439;DHT22;206;48.782;9.252;2022-11-15T03:52:40;8.50;82.80
439;DHT22;206;48.782;9.252;2022-11-15T03:55:08;8.50;83.50
439;DHT22;206;48.782;9.252;2022-11-15T03:57:33;8.50;83.60
439;DHT22;206;48.782;9.252;2022-11-15T03:59:59;8.50;83.80
439;DHT22;206;48.782;9.252;2022-11-15T04:02:25;8.60;83.70
439;DHT22;206;48.782;9.252;2022-11-15T04:04:50;8.60;82.70
439;DHT22;206;48.782;9.252;2022-11-15T04:07:16;8.50;82.00
439;DHT22;206;48.782;9.252;2022-11-15T04:09:41;8.50;83.10
439;DHT22;206;48.782;9.252;2022-11-15T04:12:25;8.40;83.20
439;DHT22;206;48.782;9.252;2022-11-15T04:15:08;8.50;83.20
439;DHT22;206;48.782;9.252;2022-11-15T04:20:02;8.50;84.40
439;DHT22;206;48.782;9.252;2022-11-15T04:22:46;8.40;84.10
439;DHT22;206;48.782;9.252;2022-11-15T04:25:30;8.40;84.10
439;DHT22;206;48.782;9.252;2022-11-15T04:27:55;8.40;84.40
439;DHT22;206;48.782;9.252;2022-11-15T04:30:21;8.40;84.50
439;DHT22;206;48.782;9.252;2022-11-15T04:32:46;8.40;85.30
439;DHT22;206;48.782;9.252;2022-11-15T04:35:12;8.40;85.40
439;DHT22;206;48.782;9.252;2022-11-15T04:37:38;8.40;85.20
439;DHT22;206;48.782;9.252;2022-11-15T04:40:03;8.50;85.20
439;DHT22;206;48.782;9.252;2022-11-15T04:42:29;8.50;84.60
439;DHT22;206;48.782;9.252;2022-11-15T04:44:55;8.50;84.30
439;DHT22;206;48.782;9.252;2022-11-15T04:47:21;8.50;83.80
439;DHT22;206;48.782;9.252;2022-11-15T04:49:46;8.50;84.00
439;DHT22;206;48.782;9.252;2022-11-15T04:52:12;8.50;83.70
439;DHT22;206;48.782;9.252;2022-11-15T04:54:37;8.50;83.70
439;DHT22;206;48.782;9.252;2022-11-15T04:57:03;8.50;83.10
439;DHT22;206;48.782;9.252;2022-11-15T04:59:29;8.50;82.00
439;DHT22;206;48.782;9.252;2022-11-15T05:01:54;8.40;82.60
439;DHT22;206;48.782;9.252;2022-11-15T05:04:20;8.40;82.90
439;DHT22;206;48.782;9.252;2022-11-15T05:06:47;8.40;83.20
439;DHT22;206;48.782;9.252;2022-11-15T05:09:13;8.40;82.50
439;DHT22;206;48.782;9.252;2022-11-15T05:11:39;8.50;82.90
439;DHT22;206;48.782;9.252;2022-11-15T05:14:05;8.50;82.60
439;DHT22;206;48.782;9.252;2022-11-15T05:16:30;8.50;82.60
439;DHT22;206;48.782;9.252;2022-11-15T05:18:56;8.50;82.00
439;DHT22;206;48.782;9.252;2022-11-15T05:21:21;8.60;82.10
439;DHT22;206;48.782;9.252;2022-11-15T05:23:47;8.50;80.20
439;DHT22;206;48.782;9.252;2022-11-15T05:26:15;8.50;80.80
439;DHT22;206;48.782;9.252;2022-11-15T05:28:41;8.50;80.10
439;DHT22;206;48.782;9.252;2022-11-15T05:31:11;8.50;80.10
439;DHT22;206;48.782;9.252;2022-11-15T05:33:39;8.40;79.00
439;DHT22;206;48.782;9.252;2022-11-15T05:36:31;8.30;79.40
439;DHT22;206;48.782;9.252;2022-11-15T05:38:57;8.20;80.50
439;DHT22;206;48.782;9.252;2022-11-15T05:41:36;8.20;81.40
439;DHT22;206;48.782;9.252;2022-11-15T05:44:05;8.10;81.70
439;DHT22;206;48.782;9.252;2022-11-15T05:46:33;8.10;82.50
439;DHT22;206;48.782;9.252;2022-11-15T05:49:00;8.10;82.40
439;DHT22;206;48.782;9.252;2022-11-15T05:51:27;8.10;82.70
439;DHT22;206;48.782;9.252;2022-11-15T05:53:55;8.10;83.10
439;DHT22;206;48.782;9.252;2022-11-15T05:56:22;8.10;81.70
439;DHT22;206;48.782;9.252;2022-11-15T05:58:47;8.10;82.20
439;DHT22;206;48.782;9.252;2022-11-15T06:01:13;8.20;82.30
439;DHT22;206;48.782;9.252;2022-11-15T06:03:39;8.20;81.80
439;DHT22;206;48.782;9.252;2022-11-15T06:06:05;8.10;81.80
439;DHT22;206;48.782;9.252;2022-11-15T06:08:30;8.10;82.00
439;DHT22;206;48.782;9.252;2022-11-15T06:10:56;8.10;82.20
439;DHT22;206;48.782;9.252;2022-11-15T06:13:21;8.10;81.60
439;DHT22;206;48.782;9.252;2022-11-15T06:15:47;8.10;82.50
439;DHT22;206;48.782;9.252;2022-11-15T06:18:13;8.10;82.70
439;DHT22;206;48.782;9.252;2022-11-15T06:20:38;8.10;83.30
439;DHT22;206;48.782;9.252;2022-11-15T06:23:04;8.10;82.60
439;DHT22;206;48.782;9.252;2022-11-15T06:25:30;8.10;82.20
439;DHT22;206;48.782;9.252;2022-11-15T06:27:58;8.10;81.20
439;DHT22;206;48.782;9.252;2022-11-15T06:30:25;8.10;81.60
439;DHT22;206;48.782;9.252;2022-11-15T06:32:51;8.10;81.30
439;DHT22;206;48.782;9.252;2022-11-15T06:35:17;8.20;81.10
439;DHT22;206;48.782;9.252;2022-11-15T06:37:43;8.20;81.10
439;DHT22;206;48.782;9.252;2022-11-15T06:40:09;8.30;80.20
439;DHT22;206;48.782;9.252;2022-11-15T06:42:35;8.30;79.70
439;DHT22;206;48.782;9.252;2022-11-15T06:45:00;8.30;78.60
439;DHT22;206;48.782;9.252;2022-11-15T06:47:26;8.30;79.20
439;DHT22;206;48.782;9.252;2022-11-15T06:49:52;8.30;77.60
439;DHT22;206;48.782;9.252;2022-11-15T06:52:17;8.40;78.20
439;DHT22;206;48.782;9.252;2022-11-15T06:54:45;8.30;77.10
439;DHT22;206;48.782;9.252;2022-11-15T06:57:10;8.40;77.10
439;DHT22;206;48.782;9.252;2022-11-15T06:59:36;8.30;77.10
439;DHT22;206;48.782;9.252;2022-11-15T07:02:02;8.30;77.10
439;DHT22;206;48.782;9.252;2022-11-15T07:04:28;8.20;77.50
439;DHT22;206;48.782;9.252;2022-11-15T07:06:54;8.20;78.20
439;DHT22;206;48.782;9.252;2022-11-15T07:09:19;8.20;78.60
439;DHT22;206;48.782;9.252;2022-11-15T07:11:45;8.10;78.40
439;DHT22;206;48.782;9.252;2022-11-15T07:14:10;8.10;78.90
439;DHT22;206;48.782;9.252;2022-11-15T07:16:36;8.20;78.70
439;DHT22;206;48.782;9.252;2022-11-15T07:19:02;8.20;78.40
439;DHT22;206;48.782;9.252;2022-11-15T07:21:28;8.20;78.00
439;DHT22;206;48.782;9.252;2022-11-15T07:23:53;8.20;77.30
439;DHT22;206;48.782;9.252;2022-11-15T07:26:19;8.30;77.10
439;DHT22;206;48.782;9.252;2022-11-15T07:28:45;8.30;77.10
439;DHT22;206;48.782;9.252;2022-11-15T07:31:10;8.40;76.50
439;DHT22;206;48.782;9.252;2022-11-15T07:33:36;8.50;75.80
439;DHT22;206;48.782;9.252;2022-11-15T07:36:04;8.50;75.70
439;DHT22;206;48.782;9.252;2022-11-15T07:38:30;8.60;75.30
439;DHT22;206;48.782;9.252;2022-11-15T07:41:02;8.80;74.80
439;DHT22;206;48.782;9.252;2022-11-15T07:43:28;9.00;74.40
439;DHT22;206;48.782;9.252;2022-11-15T07:45:55;9.20;73.00
439;DHT22;206;48.782;9.252;2022-11-15T07:48:21;9.30;71.40
439;DHT22;206;48.782;9.252;2022-11-15T07:50:47;9.50;68.80
439;DHT22;206;48.782;9.252;2022-11-15T07:53:12;9.60;69.20
439;DHT22;206;48.782;9.252;2022-11-15T07:55:40;9.70;66.40
439;DHT22;206;48.782;9.252;2022-11-15T07:58:08;9.90;64.20
439;DHT22;206;48.782;9.252;2022-11-15T08:00:35;10.00;62.50
439;DHT22;206;48.782;9.252;2022-11-15T08:05:30;10.30;59.70
439;DHT22;206;48.782;9.252;2022-11-15T08:07:56;10.50;59.20
439;DHT22;206;48.782;9.252;2022-11-15T08:10:22;10.80;58.70
439;DHT22;206;48.782;9.252;2022-11-15T08:12:47;11.00;56.20
439;DHT22;206;48.782;9.252;2022-11-15T08:15:14;11.00;55.30
439;DHT22;206;48.782;9.252;2022-11-15T08:17:39;11.10;54.30
439;DHT22;206;48.782;9.252;2022-11-15T08:20:05;11.20;54.00
439;DHT22;206;48.782;9.252;2022-11-15T08:22:31;11.20;54.40
439;DHT22;206;48.782;9.252;2022-11-15T08:24:58;11.20;54.00
439;DHT22;206;48.782;9.252;2022-11-15T08:27:24;11.20;54.40
439;DHT22;206;48.782;9.252;2022-11-15T08:29:50;11.40;53.40
439;DHT22;206;48.782;9.252;2022-11-15T08:32:16;11.50;53.20
439;DHT22;206;48.782;9.252;2022-11-15T08:34:43;11.50;52.90
439;DHT22;206;48.782;9.252;2022-11-15T08:37:08;11.50;52.60
439;DHT22;206;48.782;9.252;2022-11-15T08:39:34;11.40;52.80
439;DHT22;206;48.782;9.252;2022-11-15T08:41:59;11.40;53.00
439;DHT22;206;48.782;9.252;2022-11-15T08:44:25;11.30;53.30
439;DHT22;206;48.782;9.252;2022-11-15T08:46:50;11.30;53.90
439;DHT22;206;48.782;9.252;2022-11-15T08:49:16;11.40;54.00
439;DHT22;206;48.782;9.252;2022-11-15T08:51:42;11.40;53.70
439;DHT22;206;48.782;9.252;2022-11-15T08:54:07;11.40;53.60
439;DHT22;206;48.782;9.252;2022-11-15T08:56:33;11.30;53.80
439;DHT22;206;48.782;9.252;2022-11-15T08:58:58;11.30;54.50
439;DHT22;206;48.782;9.252;2022-11-15T09:01:24;11.40;54.20
439;DHT22;206;48.782;9.252;2022-11-15T09:03:50;11.40;53.80
439;DHT22;206;48.782;9.252;2022-11-15T09:06:16;11.60;53.00
439;DHT22;206;48.782;9.252;2022-11-15T09:08:42;11.80;52.40
439;DHT22;206;48.782;9.252;2022-11-15T09:11:09;11.90;50.80
439;DHT22;206;48.782;9.252;2022-11-15T09:13:35;12.10;51.10
439;DHT22;206;48.782;9.252;2022-11-15T09:16:02;12.40;51.10
439;DHT22;206;48.782;9.252;2022-11-15T09:18:28;12.70;50.30
439;DHT22;206;48.782;9.252;2022-11-15T09:20:58;13.00;49.20
439;DHT22;206;48.782;9.252;2022-11-15T09:23:25;13.20;47.70
439;DHT22;206;48.782;9.252;2022-11-15T09:25:52;13.40;46.20
439;DHT22;206;48.782;9.252;2022-11-15T09:28:18;13.60;45.90
439;DHT22;206;48.782;9.252;2022-11-15T09:30:44;13.70;44.00
439;DHT22;206;48.782;9.252;2022-11-15T09:33:11;13.80;44.70
439;DHT22;206;48.782;9.252;2022-11-15T09:35:38;13.90;41.50
439;DHT22;206;48.782;9.252;2022-11-15T09:38:04;13.80;41.10
439;DHT22;206;48.782;9.252;2022-11-15T09:40:31;13.70;41.20
439;DHT22;206;48.782;9.252;2022-11-15T09:46:33;13.80;41.50
439;DHT22;206;48.782;9.252;2022-11-15T09:49:02;13.90;40.70
439;DHT22;206;48.782;9.252;2022-11-15T09:51:30;14.10;39.70
439;DHT22;206;48.782;9.252;2022-11-15T09:54:00;14.10;39.80
439;DHT22;206;48.782;9.252;2022-11-15T09:56:29;14.20;39.10
439;DHT22;206;48.782;9.252;2022-11-15T09:59:27;14.10;39.30
439;DHT22;206;48.782;9.252;2022-11-15T10:04:45;14.30;39.50
439;DHT22;206;48.782;9.252;2022-11-15T10:07:28;14.50;39.60
439;DHT22;206;48.782;9.252;2022-11-15T10:10:01;14.70;37.60
439;DHT22;206;48.782;9.252;2022-11-15T10:12:28;14.80;37.30
439;DHT22;206;48.782;9.252;2022-11-15T10:15:11;14.90;36.90
439;DHT22;206;48.782;9.252;2022-11-15T10:17:49;15.00;36.00
439;DHT22;206;48.782;9.252;2022-11-15T10:20:26;15.10;36.30
439;DHT22;206;48.782;9.252;2022-11-15T10:22:58;15.10;35.50
439;DHT22;206;48.782;9.252;2022-11-15T10:25:30;15.10;34.90
439;DHT22;206;48.782;9.252;2022-11-15T10:27:58;15.30;35.60
439;DHT22;206;48.782;9.252;2022-11-15T10:30:32;15.50;35.50
439;DHT22;206;48.782;9.252;2022-11-15T10:32:57;15.40;33.10
439;DHT22;206;48.782;9.252;2022-11-15T10:35:29;15.50;34.00
439;DHT22;206;48.782;9.252;2022-11-15T10:38:11;15.50;33.80
439;DHT22;206;48.782;9.252;2022-11-15T10:40:38;15.60;33.70
439;DHT22;206;48.782;9.252;2022-11-15T10:45:36;15.60;32.70
439;DHT22;206;48.782;9.252;2022-11-15T10:50:37;15.70;32.50
439;DHT22;206;48.782;9.252;2022-11-15T10:53:04;15.80;33.10
439;DHT22;206;48.782;9.252;2022-11-15T10:55:37;16.00;32.70
439;DHT22;206;48.782;9.252;2022-11-15T10:58:19;16.10;32.30
439;DHT22;206;48.782;9.252;2022-11-15T11:00:46;16.20;32.00
439;DHT22;206;48.782;9.252;2022-11-15T11:03:35;16.30;31.10
439;DHT22;206;48.782;9.252;2022-11-15T11:06:10;16.40;30.60
439;DHT22;206;48.782;9.252;2022-11-15T11:08:36;16.40;29.50
439;DHT22;206;48.782;9.252;2022-11-15T11:11:03;16.40;29.50
439;DHT22;206;48.782;9.252;2022-11-15T11:13:39;16.20;29.60
439;DHT22;206;48.782;9.252;2022-11-15T11:19:08;16.00;29.60
439;DHT22;206;48.782;9.252;2022-11-15T11:24:47;15.80;30.40
439;DHT22;206;48.782;9.252;2022-11-15T11:30:23;15.80;30.70
439;DHT22;206;48.782;9.252;2022-11-15T11:50:10;16.30;30.50
439;DHT22;206;48.782;9.252;2022-11-15T11:55:38;16.20;30.00
439;DHT22;206;48.782;9.252;2022-11-15T11:58:35;16.30;29.70
439;DHT22;206;48.782;9.252;2022-11-15T12:01:16;16.30;30.00
439;DHT22;206;48.782;9.252;2022-11-15T12:03:57;16.30;29.50
439;DHT22;206;48.782;9.252;2022-11-15T12:06:32;16.40;29.90
439;DHT22;206;48.782;9.252;2022-11-15T12:09:01;16.40;29.50
439;DHT22;206;48.782;9.252;2022-11-15T12:17:04;16.70;29.70
439;DHT22;206;48.782;9.252;2022-11-15T12:19:30;16.90;29.90
439;DHT22;206;48.782;9.252;2022-11-15T12:22:10;17.00;29.00
439;DHT22;206;48.782;9.252;2022-11-15T12:24:48;17.00;28.90
439;DHT22;206;48.782;9.252;2022-11-15T12:27:38;17.00;29.00
439;DHT22;206;48.782;9.252;2022-11-15T12:30:15;16.80;29.70
439;DHT22;206;48.782;9.252;2022-11-15T12:33:01;16.80;29.80
439;DHT22;206;48.782;9.252;2022-11-15T12:35:42;16.80;29.80
439;DHT22;206;48.782;9.252;2022-11-15T12:38:53;16.70;29.70
439;DHT22;206;48.782;9.252;2022-11-15T12:41:21;16.70;29.70
439;DHT22;206;48.782;9.252;2022-11-15T12:43:48;16.60;29.70
439;DHT22;206;48.782;9.252;2022-11-15T13:17:44;16.30;32.70
439;DHT22;206;48.782;9.252;2022-11-15T13:30:37;16.30;32.70
439;DHT22;206;48.782;9.252;2022-11-15T13:33:33;16.30;32.20
439;DHT22;206;48.782;9.252;2022-11-15T13:36:02;16.10;32.40
439;DHT22;206;48.782;9.252;2022-11-15T13:38:32;16.20;32.60
439;DHT22;206;48.782;9.252;2022-11-15T13:41:00;16.10;32.30
439;DHT22;206;48.782;9.252;2022-11-15T13:43:35;16.00;33.30
439;DHT22;206;48.782;9.252;2022-11-15T13:46:27;16.00;33.30
439;DHT22;206;48.782;9.252;2022-11-15T13:48:59;16.00;33.50
439;DHT22;206;48.782;9.252;2022-11-15T13:54:24;16.00;33.70
439;DHT22;206;48.782;9.252;2022-11-15T13:56:59;15.90;33.60
439;DHT22;206;48.782;9.252;2022-11-15T13:59:28;15.80;33.30
439;DHT22;206;48.782;9.252;2022-11-15T14:01:57;15.90;33.60
439;DHT22;206;48.782;9.252;2022-11-15T14:04:25;15.90;33.60
439;DHT22;206;48.782;9.252;2022-11-15T14:06:57;15.90;33.60
439;DHT22;206;48.782;9.252;2022-11-15T14:09:38;16.00;33.80
439;DHT22;206;48.782;9.252;2022-11-15T14:12:31;15.90;34.00
439;DHT22;206;48.782;9.252;2022-11-15T14:15:17;15.90;34.20
439;DHT22;206;48.782;9.252;2022-11-15T14:17:43;16.00;34.60
439;DHT22;206;48.782;9.252;2022-11-15T14:20:39;15.90;35.00
439;DHT22;206;48.782;9.252;2022-11-15T14:23:27;15.90;35.60
439;DHT22;206;48.782;9.252;2022-11-15T14:25:57;15.90;36.50
439;DHT22;206;48.782;9.252;2022-11-15T14:30:50;15.80;37.40
439;DHT22;206;48.782;9.252;2022-11-15T14:33:36;15.70;38.80
439;DHT22;206;48.782;9.252;2022-11-15T14:36:22;15.60;38.80
439;DHT22;206;48.782;9.252;2022-11-15T14:38:48;15.60;40.60
439;DHT22;206;48.782;9.252;2022-11-15T14:41:22;15.50;40.70
439;DHT22;206;48.782;9.252;2022-11-15T14:43:49;15.50;42.20
439;DHT22;206;48.782;9.252;2022-11-15T14:46:15;15.40;42.70
439;DHT22;206;48.782;9.252;2022-11-15T14:48:41;15.40;43.30
439;DHT22;206;48.782;9.252;2022-11-15T14:51:15;15.30;43.60
439;DHT22;206;48.782;9.252;2022-11-15T14:53:42;15.30;44.20
439;DHT22;206;48.782;9.252;2022-11-15T14:56:08;15.30;44.80
439;DHT22;206;48.782;9.252;2022-11-15T14:58:34;15.20;45.20
439;DHT22;206;48.782;9.252;2022-11-15T15:00:59;15.20;45.70
439;DHT22;206;48.782;9.252;2022-11-15T15:03:27;15.10;46.00
439;DHT22;206;48.782;9.252;2022-11-15T15:05:52;15.10;46.60
439;DHT22;206;48.782;9.252;2022-11-15T15:08:18;15.00;46.20
439;DHT22;206;48.782;9.252;2022-11-15T15:10:44;15.00;46.50
439;DHT22;206;48.782;9.252;2022-11-15T15:13:21;14.90;46.10
439;DHT22;206;48.782;9.252;2022-11-15T15:15:48;14.90;45.60
439;DHT22;206;48.782;9.252;2022-11-15T15:18:14;14.80;46.00
439;DHT22;206;48.782;9.252;2022-11-15T15:20:41;14.80;47.00
439;DHT22;206;48.782;9.252;2022-11-15T15:23:20;14.70;46.60
439;DHT22;206;48.782;9.252;2022-11-15T15:25:47;14.60;46.90
439;DHT22;206;48.782;9.252;2022-11-15T15:28:14;14.50;47.70
439;DHT22;206;48.782;9.252;2022-11-15T15:30:39;14.40;47.60
439;DHT22;206;48.782;9.252;2022-11-15T15:33:05;14.40;48.60
439;DHT22;206;48.782;9.252;2022-11-15T15:35:33;14.30;49.70
439;DHT22;206;48.782;9.252;2022-11-15T15:37:59;14.30;50.40
439;DHT22;206;48.782;9.252;2022-11-15T15:40:27;14.30;51.30
439;DHT22;206;48.782;9.252;2022-11-15T15:42:53;14.30;50.60
439;DHT22;206;48.782;9.252;2022-11-15T15:45:19;14.20;51.20
439;DHT22;206;48.782;9.252;2022-11-15T15:47:45;14.10;50.60
439;DHT22;206;48.782;9.252;2022-11-15T15:52:52;14.10;52.20
439;DHT22;206;48.782;9.252;2022-11-15T15:55:18;14.10;51.70
439;DHT22;206;48.782;9.252;2022-11-15T15:57:43;14.10;52.20
439;DHT22;206;48.782;9.252;2022-11-15T16:00:10;14.10;52.80
439;DHT22;206;48.782;9.252;2022-11-15T16:02:36;14.10;53.00
439;DHT22;206;48.782;9.252;2022-11-15T16:05:01;14.10;53.30
439;DHT22;206;48.782;9.252;2022-11-15T16:07:27;14.10;53.50
439;DHT22;206;48.782;9.252;2022-11-15T16:09:54;14.10;53.90
439;DHT22;206;48.782;9.252;2022-11-15T16:12:34;14.10;53.60
439;DHT22;206;48.782;9.252;2022-11-15T16:15:00;14.10;53.60
439;DHT22;206;48.782;9.252;2022-11-15T16:17:31;14.10;53.90
439;DHT22;206;48.782;9.252;2022-11-15T16:19:57;14.10;54.60
439;DHT22;206;48.782;9.252;2022-11-15T16:22:23;14.10;54.40
439;DHT22;206;48.782;9.252;2022-11-15T16:24:49;14.10;54.20
439;DHT22;206;48.782;9.252;2022-11-15T16:27:17;14.10;54.50
439;DHT22;206;48.782;9.252;2022-11-15T16:29:43;14.10;54.50
439;DHT22;206;48.782;9.252;2022-11-15T16:32:09;14.10;54.50
439;DHT22;206;48.782;9.252;2022-11-15T16:34:34;14.10;54.10
439;DHT22;206;48.782;9.252;2022-11-15T16:37:00;14.10;53.90
439;DHT22;206;48.782;9.252;2022-11-15T16:39:26;14.00;52.90
439;DHT22;206;48.782;9.252;2022-11-15T16:41:53;14.00;53.50
439;DHT22;206;48.782;9.252;2022-11-15T16:44:18;14.00;53.30
439;DHT22;206;48.782;9.252;2022-11-15T16:46:44;14.00;52.80
439;DHT22;206;48.782;9.252;2022-11-15T16:49:16;14.00;52.10
439;DHT22;206;48.782;9.252;2022-11-15T16:51:46;14.10;52.20
439;DHT22;206;48.782;9.252;2022-11-15T16:54:12;14.10;52.20
439;DHT22;206;48.782;9.252;2022-11-15T16:56:38;14.10;52.20
439;DHT22;206;48.782;9.252;2022-11-15T16:59:04;14.10;52.20
439;DHT22;206;48.782;9.252;2022-11-15T17:01:36;14.10;52.20
439;DHT22;206;48.782;9.252;2022-11-15T17:04:18;14.10;52.20
439;DHT22;206;48.782;9.252;2022-11-15T17:06:46;14.10;51.60
439;DHT22;206;48.782;9.252;2022-11-15T17:09:20;14.10;52.20
439;DHT22;206;48.782;9.252;2022-11-15T17:11:47;14.10;52.20
439;DHT22;206;48.782;9.252;2022-11-15T17:14:13;14.10;52.20
439;DHT22;206;48.782;9.252;2022-11-15T17:16:40;14.10;52.20
439;DHT22;206;48.782;9.252;2022-11-15T17:19:18;14.10;52.30
439;DHT22;206;48.782;9.252;2022-11-15T17:21:45;14.10;52.60
439;DHT22;206;48.782;9.252;2022-11-15T17:24:11;14.10;53.30
439;DHT22;206;48.782;9.252;2022-11-15T17:26:37;14.00;53.20
439;DHT22;206;48.782;9.252;2022-11-15T17:29:03;14.00;52.70
439;DHT22;206;48.782;9.252;2022-11-15T17:31:33;14.00;53.10
439;DHT22;206;48.782;9.252;2022-11-15T17:34:00;14.00;53.00
439;DHT22;206;48.782;9.252;2022-11-15T17:36:26;14.00;53.00
439;DHT22;206;48.782;9.252;2022-11-15T17:38:51;14.00;53.20
439;DHT22;206;48.782;9.252;2022-11-15T17:41:17;14.00;52.60
439;DHT22;206;48.782;9.252;2022-11-15T17:43:44;14.00;52.70
439;DHT22;206;48.782;9.252;2022-11-15T17:46:15;14.00;52.90
439;DHT22;206;48.782;9.252;2022-11-15T17:48:42;13.90;52.80
439;DHT22;206;48.782;9.252;2022-11-15T17:51:10;13.90;52.90
439;DHT22;206;48.782;9.252;2022-11-15T17:53:38;13.90;53.50
439;DHT22;206;48.782;9.252;2022-11-15T17:56:12;13.90;53.60
439;DHT22;206;48.782;9.252;2022-11-15T17:58:38;13.90;53.80
439;DHT22;206;48.782;9.252;2022-11-15T18:01:13;14.00;54.10
439;DHT22;206;48.782;9.252;2022-11-15T18:03:40;14.00;53.40
439;DHT22;206;48.782;9.252;2022-11-15T18:06:07;14.00;52.90
439;DHT22;206;48.782;9.252;2022-11-15T18:08:37;14.00;53.10
439;DHT22;206;48.782;9.252;2022-11-15T18:11:12;13.90;53.00
439;DHT22;206;48.782;9.252;2022-11-15T18:13:38;13.90;53.30
439;DHT22;206;48.782;9.252;2022-11-15T18:16:07;13.90;53.50
439;DHT22;206;48.782;9.252;2022-11-15T18:18:34;13.90;53.60
439;DHT22;206;48.782;9.252;2022-11-15T18:21:20;14.00;52.60
439;DHT22;206;48.782;9.252;2022-11-15T18:23:48;14.00;52.10
439;DHT22;206;48.782;9.252;2022-11-15T18:26:15;14.00;52.50
439;DHT22;206;48.782;9.252;2022-11-15T18:28:47;13.90;52.00
439;DHT22;206;48.782;9.252;2022-11-15T18:31:21;14.00;52.50
439;DHT22;206;48.782;9.252;2022-11-15T18:33:48;14.00;52.30
439;DHT22;206;48.782;9.252;2022-11-15T18:36:20;14.00;52.70
439;DHT22;206;48.782;9.252;2022-11-15T18:38:46;13.90;52.80
439;DHT22;206;48.782;9.252;2022-11-15T18:41:14;13.90;53.10
439;DHT22;206;48.782;9.252;2022-11-15T18:43:42;13.90;53.30
439;DHT22;206;48.782;9.252;2022-11-15T18:46:11;13.90;53.30
439;DHT22;206;48.782;9.252;2022-11-15T18:48:39;13.90;53.30
439;DHT22;206;48.782;9.252;2022-11-15T18:51:07;13.90;53.80
439;DHT22;206;48.782;9.252;2022-11-15T18:53:33;13.90;54.00
439;DHT22;206;48.782;9.252;2022-11-15T18:56:02;13.90;53.90
439;DHT22;206;48.782;9.252;2022-11-15T18:58:30;13.90;54.00
439;DHT22;206;48.782;9.252;2022-11-15T19:01:08;13.90;54.10
439;DHT22;206;48.782;9.252;2022-11-15T19:03:35;13.90;54.30